DLH773 VTBS-EDDM
Flight info
| Callsign | DLH773 |
|---|---|
| Flight time | N/A |
| Altitude | 34000 |
| Route | TARED1J TARED P646 BBN/N0495F360 R460 LKN M890 JAL R594 DPN A589 BUTOP M875 DI N644 LEMOD A909 NINOP/N0481F380 A909 RODAR N644 ADEKI DCT BADIR DCT LAGAS DCT FOQUS DCT SARPI UM10 GOKPA UL746 ODERO L746 LUGEB/N0471F400 DCT MOPUG DCT SUNIS DCT AMADI Q113 NAPSA NAPSA4A |
| Aircraft | A346/H-SDE2E3FGHIJ3J4J5M1RWXY/LB1D1 |
Departure
| Time | N/A |
|---|---|
| Airport | Suvarnabhumi Airport (VTBS) |
Arrival
| Time | 2026-05-06 22:26 |
|---|---|
| Airport | Munich Airport (EDDM) |
| Time | Latitude | Longitude | Altitude | Speed | Heading |
|---|---|---|---|---|---|
| 2026-05-06 20:37 | 43.69504 | 28.56681 | 40094 ft | 454 kts | 311° |
| 2026-05-06 20:37 | 43.71423 | 28.53263 | 40088 ft | 455 kts | 308° |
| 2026-05-06 20:38 | 43.74925 | 28.45930 | 40089 ft | 456 kts | 302° |
| 2026-05-06 20:38 | 43.77887 | 28.38197 | 40094 ft | 457 kts | 298° |
| 2026-05-06 20:39 | 43.80708 | 28.30318 | 40090 ft | 457 kts | 298° |
| 2026-05-06 20:39 | 43.83527 | 28.22408 | 40081 ft | 456 kts | 298° |
| 2026-05-06 20:40 | 43.86328 | 28.14529 | 40087 ft | 455 kts | 298° |
| 2026-05-06 20:40 | 43.89132 | 28.06625 | 40082 ft | 455 kts | 298° |
| 2026-05-06 20:41 | 43.91924 | 27.98733 | 40078 ft | 455 kts | 298° |
| 2026-05-06 20:41 | 43.94712 | 27.90836 | 40076 ft | 454 kts | 298° |
| 2026-05-06 20:42 | 43.97469 | 27.82995 | 40073 ft | 454 kts | 298° |
| 2026-05-06 20:42 | 44.00228 | 27.75128 | 40065 ft | 454 kts | 297° |
| 2026-05-06 20:43 | 44.02995 | 27.67219 | 40068 ft | 454 kts | 297° |
| 2026-05-06 20:43 | 44.05747 | 27.59337 | 40057 ft | 452 kts | 297° |
| 2026-05-06 20:44 | 44.08487 | 27.51455 | 40054 ft | 452 kts | 297° |
| 2026-05-06 20:44 | 44.11210 | 27.43600 | 40054 ft | 452 kts | 297° |
| 2026-05-06 20:45 | 44.13938 | 27.35708 | 40055 ft | 452 kts | 297° |
| 2026-05-06 20:45 | 44.16656 | 27.27828 | 40045 ft | 451 kts | 297° |
| 2026-05-06 20:46 | 44.19367 | 27.19939 | 40049 ft | 450 kts | 297° |
| 2026-05-06 20:46 | 44.22076 | 27.12031 | 40045 ft | 450 kts | 297° |
| 2026-05-06 20:47 | 44.24768 | 27.04155 | 40044 ft | 450 kts | 297° |
| 2026-05-06 20:47 | 44.27453 | 26.96276 | 40040 ft | 450 kts | 296° |
| 2026-05-06 20:48 | 44.30138 | 26.88372 | 40044 ft | 450 kts | 296° |
| 2026-05-06 20:48 | 44.32813 | 26.80475 | 40044 ft | 450 kts | 296° |
| 2026-05-06 20:49 | 44.35485 | 26.72562 | 40040 ft | 450 kts | 296° |
| 2026-05-06 20:49 | 44.38148 | 26.64652 | 40049 ft | 450 kts | 296° |
| 2026-05-06 20:50 | 44.40811 | 26.56719 | 40038 ft | 451 kts | 296° |
| 2026-05-06 20:50 | 44.43487 | 26.48725 | 40033 ft | 451 kts | 296° |
| 2026-05-06 20:51 | 44.46141 | 26.40773 | 40029 ft | 451 kts | 296° |
| 2026-05-06 20:51 | 44.48793 | 26.32806 | 40033 ft | 451 kts | 296° |
| 2026-05-06 20:52 | 44.51420 | 26.24884 | 40031 ft | 451 kts | 296° |
| 2026-05-06 20:52 | 44.54073 | 26.16859 | 40032 ft | 451 kts | 296° |
| 2026-05-06 20:53 | 44.56699 | 26.08896 | 40027 ft | 450 kts | 296° |
| 2026-05-06 20:53 | 44.59318 | 26.00931 | 40029 ft | 449 kts | 296° |
| 2026-05-06 20:54 | 44.61928 | 25.92967 | 40033 ft | 449 kts | 296° |
| 2026-05-06 20:54 | 44.64536 | 25.84984 | 40033 ft | 449 kts | 296° |
| 2026-05-06 20:55 | 44.67136 | 25.77001 | 40036 ft | 449 kts | 296° |
| 2026-05-06 20:55 | 44.69727 | 25.69021 | 40035 ft | 447 kts | 296° |
| 2026-05-06 20:56 | 44.72299 | 25.61081 | 40036 ft | 447 kts | 296° |
| 2026-05-06 20:56 | 44.74888 | 25.53061 | 40037 ft | 447 kts | 295° |
| 2026-05-06 20:57 | 44.77440 | 25.45130 | 40030 ft | 447 kts | 295° |
| 2026-05-06 20:57 | 44.80001 | 25.37150 | 40038 ft | 447 kts | 295° |
| 2026-05-06 20:58 | 44.82559 | 25.29154 | 40038 ft | 446 kts | 295° |
| 2026-05-06 20:58 | 44.85115 | 25.21137 | 40038 ft | 446 kts | 295° |
| 2026-05-06 20:59 | 44.87662 | 25.13126 | 40034 ft | 446 kts | 295° |
| 2026-05-06 20:59 | 44.90181 | 25.05186 | 40039 ft | 446 kts | 295° |
| 2026-05-06 21:00 | 44.92720 | 24.97143 | 40040 ft | 446 kts | 295° |
| 2026-05-06 21:00 | 44.95239 | 24.89142 | 40044 ft | 446 kts | 295° |
| 2026-05-06 21:01 | 44.97750 | 24.81146 | 40042 ft | 446 kts | 295° |
| 2026-05-06 21:01 | 45.00258 | 24.73143 | 40036 ft | 445 kts | 294° |
| 2026-05-06 21:02 | 45.02747 | 24.65163 | 40036 ft | 445 kts | 294° |
| 2026-05-06 21:02 | 45.05245 | 24.57130 | 40033 ft | 445 kts | 294° |
| 2026-05-06 21:03 | 45.07733 | 24.49105 | 40032 ft | 445 kts | 294° |
| 2026-05-06 21:03 | 45.10215 | 24.41086 | 40034 ft | 443 kts | 294° |
| 2026-05-06 21:04 | 45.12676 | 24.33084 | 40037 ft | 443 kts | 293° |
| 2026-05-06 21:04 | 45.15123 | 24.25109 | 40030 ft | 443 kts | 293° |
| 2026-05-06 21:05 | 45.17569 | 24.17115 | 40034 ft | 443 kts | 293° |
| 2026-05-06 21:05 | 45.19612 | 24.10433 | 40047 ft | 443 kts | 293° |
| 2026-05-06 21:06 | 45.22065 | 24.02372 | 40040 ft | 443 kts | 293° |
| 2026-05-06 21:06 | 45.24510 | 23.94310 | 40041 ft | 443 kts | 293° |
| 2026-05-06 21:07 | 45.26936 | 23.86293 | 40044 ft | 444 kts | 293° |
| 2026-05-06 21:07 | 45.29376 | 23.78214 | 40041 ft | 443 kts | 292° |
| 2026-05-06 21:08 | 45.31801 | 23.70147 | 40038 ft | 443 kts | 292° |
| 2026-05-06 21:08 | 45.34209 | 23.62104 | 40039 ft | 444 kts | 292° |
| 2026-05-06 21:09 | 45.36631 | 23.53995 | 40039 ft | 443 kts | 292° |
| 2026-05-06 21:09 | 45.39024 | 23.45955 | 40041 ft | 443 kts | 292° |
| 2026-05-06 21:10 | 45.41440 | 23.37813 | 40038 ft | 443 kts | 292° |
| 2026-05-06 21:10 | 45.43832 | 23.29731 | 40036 ft | 443 kts | 292° |
| 2026-05-06 21:11 | 45.46218 | 23.21636 | 40030 ft | 443 kts | 292° |
| 2026-05-06 21:11 | 45.48603 | 23.13526 | 40019 ft | 443 kts | 291° |
| 2026-05-06 21:12 | 45.50976 | 23.05435 | 40019 ft | 444 kts | 291° |
| 2026-05-06 21:12 | 45.53361 | 22.97262 | 40009 ft | 444 kts | 291° |
| 2026-05-06 21:13 | 45.55719 | 22.89155 | 40009 ft | 444 kts | 291° |
| 2026-05-06 21:13 | 45.58086 | 22.80995 | 40005 ft | 444 kts | 291° |
| 2026-05-06 21:14 | 45.60465 | 22.72779 | 39995 ft | 446 kts | 291° |
| 2026-05-06 21:14 | 45.62812 | 22.64628 | 39994 ft | 446 kts | 291° |
| 2026-05-06 21:15 | 45.65174 | 22.56399 | 39984 ft | 446 kts | 290° |
| 2026-05-06 21:15 | 45.67523 | 22.48194 | 39986 ft | 446 kts | 290° |
| 2026-05-06 21:16 | 45.69871 | 22.39981 | 39985 ft | 447 kts | 290° |
| 2026-05-06 21:16 | 45.72216 | 22.31727 | 39968 ft | 447 kts | 290° |
| 2026-05-06 21:17 | 45.74545 | 22.23503 | 39970 ft | 447 kts | 290° |
| 2026-05-06 21:17 | 45.76884 | 22.15224 | 39960 ft | 447 kts | 290° |
| 2026-05-06 21:18 | 45.79226 | 22.06926 | 39958 ft | 448 kts | 290° |
| 2026-05-06 21:18 | 45.81558 | 21.98617 | 39952 ft | 449 kts | 289° |
| 2026-05-06 21:19 | 45.83877 | 21.90324 | 39943 ft | 449 kts | 289° |
| 2026-05-06 21:19 | 45.86199 | 21.81988 | 39942 ft | 449 kts | 289° |
| 2026-05-06 21:20 | 45.88509 | 21.73671 | 39941 ft | 450 kts | 289° |
| 2026-05-06 21:20 | 45.90837 | 21.65257 | 39937 ft | 451 kts | 289° |
| 2026-05-06 21:21 | 45.93139 | 21.56908 | 39934 ft | 451 kts | 289° |
| 2026-05-06 21:21 | 45.95455 | 21.48478 | 39924 ft | 451 kts | 289° |
| 2026-05-06 21:22 | 45.97744 | 21.40122 | 39931 ft | 452 kts | 289° |
| 2026-05-06 21:22 | 46.00049 | 21.31670 | 39923 ft | 453 kts | 289° |
| 2026-05-06 21:23 | 46.02348 | 21.23213 | 39926 ft | 453 kts | 289° |
| 2026-05-06 21:23 | 46.04625 | 21.14806 | 39925 ft | 453 kts | 289° |
| 2026-05-06 21:24 | 46.06911 | 21.06331 | 39928 ft | 453 kts | 289° |
| 2026-05-06 21:24 | 46.09192 | 20.97846 | 39920 ft | 453 kts | 289° |
| 2026-05-06 21:25 | 46.11462 | 20.89375 | 39915 ft | 453 kts | 289° |
| 2026-05-06 21:25 | 46.13731 | 20.80868 | 39912 ft | 453 kts | 289° |
| 2026-05-06 21:26 | 46.15985 | 20.72384 | 39921 ft | 453 kts | 289° |
| 2026-05-06 21:26 | 46.18158 | 20.63860 | 39910 ft | 453 kts | 287° |
| 2026-05-06 21:27 | 46.20273 | 20.55246 | 39907 ft | 453 kts | 287° |
| 2026-05-06 21:27 | 46.22372 | 20.46674 | 39904 ft | 453 kts | 287° |
| 2026-05-06 21:28 | 46.24472 | 20.38080 | 39907 ft | 453 kts | 287° |
| 2026-05-06 21:28 | 46.26551 | 20.29544 | 39910 ft | 452 kts | 287° |
| 2026-05-06 21:29 | 46.28634 | 20.20966 | 39909 ft | 451 kts | 287° |
| 2026-05-06 21:29 | 46.30711 | 20.12376 | 39907 ft | 451 kts | 287° |
| 2026-05-06 21:30 | 46.32780 | 20.03791 | 39913 ft | 451 kts | 287° |
| 2026-05-06 21:30 | 46.34843 | 19.95194 | 39912 ft | 451 kts | 287° |
| 2026-05-06 21:31 | 46.36898 | 19.86598 | 39922 ft | 451 kts | 287° |
| 2026-05-06 21:31 | 46.38932 | 19.78057 | 39919 ft | 451 kts | 287° |
| 2026-05-06 21:32 | 46.40988 | 19.69392 | 39917 ft | 451 kts | 287° |
| 2026-05-06 21:32 | 46.44030 | 19.56488 | 39925 ft | 450 kts | 287° |
| 2026-05-06 21:33 | 46.46036 | 19.47939 | 39923 ft | 450 kts | 287° |
| 2026-05-06 21:33 | 46.48049 | 19.39326 | 39923 ft | 450 kts | 287° |
| 2026-05-06 21:34 | 46.50056 | 19.30710 | 39919 ft | 450 kts | 287° |
| 2026-05-06 21:34 | 46.52059 | 19.22086 | 39925 ft | 449 kts | 287° |
| 2026-05-06 21:35 | 46.54038 | 19.13526 | 39923 ft | 449 kts | 287° |
| 2026-05-06 21:35 | 46.56023 | 19.04905 | 39920 ft | 449 kts | 286° |
| 2026-05-06 21:36 | 46.57999 | 18.96291 | 39919 ft | 449 kts | 286° |
| 2026-05-06 21:36 | 46.59970 | 18.87668 | 39914 ft | 448 kts | 286° |
| 2026-05-06 21:37 | 46.61933 | 18.79039 | 39917 ft | 448 kts | 286° |
| 2026-05-06 21:37 | 46.63871 | 18.70487 | 39910 ft | 448 kts | 286° |
| 2026-05-06 21:38 | 46.65815 | 18.61874 | 39923 ft | 447 kts | 286° |
| 2026-05-06 21:38 | 46.67758 | 18.53233 | 39930 ft | 447 kts | 285° |
| 2026-05-06 21:39 | 46.69689 | 18.44617 | 39915 ft | 447 kts | 285° |
| 2026-05-06 21:39 | 46.71611 | 18.35991 | 39913 ft | 446 kts | 285° |
| 2026-05-06 21:40 | 46.73529 | 18.27351 | 39913 ft | 446 kts | 285° |
| 2026-05-06 21:40 | 46.75424 | 18.18782 | 39911 ft | 446 kts | 285° |
| 2026-05-06 21:41 | 46.77327 | 18.10149 | 39909 ft | 446 kts | 285° |
| 2026-05-06 21:41 | 46.79225 | 18.01506 | 39905 ft | 446 kts | 285° |
| 2026-05-06 21:42 | 46.81111 | 17.92851 | 39903 ft | 446 kts | 284° |
| 2026-05-06 21:42 | 46.82978 | 17.84252 | 39898 ft | 446 kts | 284° |
| 2026-05-06 21:43 | 46.84859 | 17.75577 | 39907 ft | 447 kts | 284° |
| 2026-05-06 21:43 | 46.86736 | 17.66869 | 39898 ft | 447 kts | 284° |
| 2026-05-06 21:44 | 46.88594 | 17.58216 | 39900 ft | 448 kts | 284° |
| 2026-05-06 21:44 | 46.90456 | 17.49505 | 39890 ft | 448 kts | 284° |
| 2026-05-06 21:45 | 46.92304 | 17.40832 | 39899 ft | 448 kts | 284° |
| 2026-05-06 21:45 | 46.94160 | 17.32085 | 39885 ft | 448 kts | 284° |
| 2026-05-06 21:46 | 46.96007 | 17.23333 | 39885 ft | 449 kts | 283° |
| 2026-05-06 21:46 | 46.97845 | 17.14593 | 39883 ft | 449 kts | 283° |
| 2026-05-06 21:47 | 46.99667 | 17.05887 | 39877 ft | 448 kts | 283° |
| 2026-05-06 21:47 | 47.01495 | 16.97125 | 39883 ft | 449 kts | 283° |
| 2026-05-06 21:48 | 47.03308 | 16.88386 | 39872 ft | 449 kts | 283° |
| 2026-05-06 21:48 | 47.05121 | 16.79611 | 39862 ft | 449 kts | 283° |
| 2026-05-06 21:49 | 47.06930 | 16.70812 | 39862 ft | 449 kts | 283° |
| 2026-05-06 21:49 | 47.08735 | 16.61998 | 39865 ft | 450 kts | 283° |
| 2026-05-06 21:50 | 47.10530 | 16.53185 | 39862 ft | 451 kts | 283° |
| 2026-05-06 21:50 | 47.12324 | 16.44333 | 39856 ft | 451 kts | 283° |
| 2026-05-06 21:51 | 47.14201 | 16.35553 | 39851 ft | 453 kts | 286° |
| 2026-05-06 21:51 | 47.16594 | 16.26917 | 39853 ft | 455 kts | 289° |
| 2026-05-06 21:52 | 47.19112 | 16.18401 | 39853 ft | 455 kts | 289° |
| 2026-05-06 21:52 | 47.21627 | 16.09869 | 39852 ft | 455 kts | 289° |
| 2026-05-06 21:53 | 47.24130 | 16.01334 | 39854 ft | 455 kts | 289° |
| 2026-05-06 21:53 | 47.26635 | 15.92759 | 39855 ft | 455 kts | 289° |
| 2026-05-06 21:54 | 47.29142 | 15.84151 | 39860 ft | 457 kts | 289° |
| 2026-05-06 21:54 | 47.31631 | 15.75558 | 39864 ft | 457 kts | 289° |
| 2026-05-06 21:55 | 47.33709 | 15.68370 | 39859 ft | 457 kts | 289° |
| 2026-05-06 21:55 | 47.36606 | 15.58312 | 39861 ft | 457 kts | 289° |
| 2026-05-06 21:56 | 47.38678 | 15.51084 | 39870 ft | 458 kts | 289° |
| 2026-05-06 21:56 | 47.41161 | 15.42403 | 39867 ft | 460 kts | 289° |
| 2026-05-06 21:57 | 47.43653 | 15.33663 | 39866 ft | 460 kts | 289° |
| 2026-05-06 21:57 | 47.46135 | 15.24923 | 39857 ft | 460 kts | 289° |
| 2026-05-06 21:58 | 47.48615 | 15.16157 | 39884 ft | 461 kts | 289° |
| 2026-05-06 21:58 | 47.51088 | 15.07384 | 39859 ft | 461 kts | 288° |
| 2026-05-06 21:59 | 47.53534 | 14.98678 | 39858 ft | 461 kts | 288° |
| 2026-05-06 21:59 | 47.55997 | 14.89879 | 39560 ft | 459 kts | 288° |
| 2026-05-06 22:00 | 47.57216 | 14.85520 | 39334 ft | 456 kts | 288° |
| 2026-05-06 22:00 | 47.58426 | 14.81184 | 39101 ft | 453 kts | 288° |
| 2026-05-06 22:00 | 47.59630 | 14.76868 | 38900 ft | 449 kts | 287° |
| 2026-05-06 22:00 | 47.60801 | 14.72665 | 38656 ft | 444 kts | 287° |
| 2026-05-06 22:01 | 47.61979 | 14.68405 | 38286 ft | 442 kts | 287° |
| 2026-05-06 22:01 | 47.63144 | 14.64182 | 37789 ft | 441 kts | 287° |
| 2026-05-06 22:01 | 47.64310 | 14.59968 | 37202 ft | 441 kts | 286° |
| 2026-05-06 22:01 | 47.65455 | 14.55813 | 36614 ft | 440 kts | 286° |
| 2026-05-06 22:02 | 47.66614 | 14.51596 | 36031 ft | 440 kts | 286° |
| 2026-05-06 22:02 | 47.67773 | 14.47372 | 35399 ft | 441 kts | 285° |
| 2026-05-06 22:02 | 47.68933 | 14.43136 | 34764 ft | 443 kts | 285° |
| 2026-05-06 22:02 | 47.70103 | 14.38863 | 34159 ft | 444 kts | 285° |
| 2026-05-06 22:03 | 47.71253 | 14.34659 | 33451 ft | 445 kts | 284° |
| 2026-05-06 22:03 | 47.72430 | 14.30330 | 32735 ft | 446 kts | 285° |
| 2026-05-06 22:03 | 47.73577 | 14.26101 | 32053 ft | 446 kts | 285° |
| 2026-05-06 22:03 | 47.74738 | 14.21809 | 31372 ft | 448 kts | 285° |
| 2026-05-06 22:04 | 47.75906 | 14.17491 | 30657 ft | 450 kts | 285° |
| 2026-05-06 22:04 | 47.77077 | 14.13159 | 29922 ft | 451 kts | 285° |
| 2026-05-06 22:04 | 47.78250 | 14.08818 | 29102 ft | 453 kts | 285° |
| 2026-05-06 22:04 | 47.79427 | 14.04456 | 28310 ft | 453 kts | 285° |
| 2026-05-06 22:05 | 47.80600 | 14.00106 | 27762 ft | 451 kts | 285° |
| 2026-05-06 22:05 | 47.81765 | 13.95778 | 27212 ft | 449 kts | 285° |
| 2026-05-06 22:05 | 47.82921 | 13.91476 | 26704 ft | 444 kts | 285° |
| 2026-05-06 22:05 | 47.84062 | 13.87219 | 26136 ft | 441 kts | 285° |
| 2026-05-06 22:06 | 47.85193 | 13.82988 | 25603 ft | 437 kts | 285° |
| 2026-05-06 22:06 | 47.86314 | 13.78783 | 25123 ft | 434 kts | 285° |
| 2026-05-06 22:06 | 47.87413 | 13.74658 | 24652 ft | 430 kts | 285° |
| 2026-05-06 22:06 | 47.88513 | 13.70520 | 24180 ft | 426 kts | 285° |
| 2026-05-06 22:07 | 47.89603 | 13.66412 | 23722 ft | 423 kts | 285° |
| 2026-05-06 22:07 | 47.90685 | 13.62320 | 23247 ft | 421 kts | 285° |
| 2026-05-06 22:07 | 47.91754 | 13.58273 | 22727 ft | 418 kts | 285° |
| 2026-05-06 22:07 | 47.92817 | 13.54249 | 22253 ft | 414 kts | 285° |
| 2026-05-06 22:08 | 47.93854 | 13.50313 | 21804 ft | 411 kts | 285° |
| 2026-05-06 22:08 | 47.94894 | 13.46359 | 21340 ft | 407 kts | 285° |
| 2026-05-06 22:08 | 47.95924 | 13.42433 | 20893 ft | 404 kts | 285° |
| 2026-05-06 22:08 | 47.96946 | 13.38536 | 20449 ft | 401 kts | 285° |
| 2026-05-06 22:09 | 47.97957 | 13.34665 | 19998 ft | 399 kts | 285° |
| 2026-05-06 22:09 | 47.98964 | 13.30809 | 19539 ft | 396 kts | 285° |
| 2026-05-06 22:09 | 47.99963 | 13.26975 | 19099 ft | 394 kts | 285° |
| 2026-05-06 22:09 | 48.00953 | 13.23164 | 18657 ft | 392 kts | 286° |
| 2026-05-06 22:10 | 48.01944 | 13.19346 | 18191 ft | 391 kts | 286° |
| 2026-05-06 22:10 | 48.02916 | 13.15602 | 17692 ft | 389 kts | 286° |
| 2026-05-06 22:10 | 48.03893 | 13.11827 | 17214 ft | 386 kts | 286° |
| 2026-05-06 22:10 | 48.04863 | 13.08075 | 16763 ft | 383 kts | 286° |
| 2026-05-06 22:11 | 48.05811 | 13.04400 | 16323 ft | 380 kts | 286° |
| 2026-05-06 22:11 | 48.06761 | 13.00711 | 15883 ft | 377 kts | 286° |
| 2026-05-06 22:11 | 48.07704 | 12.97049 | 15436 ft | 374 kts | 286° |
| 2026-05-06 22:11 | 48.08558 | 12.93410 | 15006 ft | 369 kts | 283° |
| 2026-05-06 22:12 | 48.09218 | 12.89707 | 14574 ft | 364 kts | 278° |
| 2026-05-06 22:12 | 48.09675 | 12.85991 | 14140 ft | 360 kts | 275° |
| 2026-05-06 22:12 | 48.10034 | 12.82285 | 13708 ft | 358 kts | 275° |
| 2026-05-06 22:12 | 48.10381 | 12.78595 | 13222 ft | 355 kts | 275° |
| 2026-05-06 22:13 | 48.10719 | 12.74993 | 12793 ft | 352 kts | 275° |
| 2026-05-06 22:13 | 48.11062 | 12.71321 | 12350 ft | 350 kts | 275° |
| 2026-05-06 22:13 | 48.11398 | 12.67725 | 11916 ft | 347 kts | 275° |
| 2026-05-06 22:13 | 48.11730 | 12.64159 | 11479 ft | 344 kts | 275° |
| 2026-05-06 22:14 | 48.12059 | 12.60613 | 11054 ft | 342 kts | 275° |
| 2026-05-06 22:14 | 48.12381 | 12.57129 | 10765 ft | 335 kts | 275° |
| 2026-05-06 22:14 | 48.12696 | 12.53746 | 10635 ft | 321 kts | 274° |
| 2026-05-06 22:14 | 48.12995 | 12.50508 | 10503 ft | 309 kts | 274° |
| 2026-05-06 22:15 | 48.13284 | 12.47358 | 10379 ft | 297 kts | 274° |
| 2026-05-06 22:15 | 48.13559 | 12.44350 | 10262 ft | 286 kts | 274° |
| 2026-05-06 22:15 | 48.13823 | 12.41442 | 10147 ft | 275 kts | 274° |
| 2026-05-06 22:15 | 48.14075 | 12.38668 | 10051 ft | 265 kts | 274° |
| 2026-05-06 22:16 | 48.14321 | 12.35947 | 9966 ft | 259 kts | 273° |
| 2026-05-06 22:16 | 48.14549 | 12.33276 | 9915 ft | 267 kts | 272° |
| 2026-05-06 22:16 | 48.14745 | 12.30484 | 9910 ft | 271 kts | 272° |
| 2026-05-06 22:16 | 48.14939 | 12.27662 | 9582 ft | 269 kts | 272° |
| 2026-05-06 22:17 | 48.15128 | 12.24874 | 9141 ft | 270 kts | 272° |
| 2026-05-06 22:17 | 48.15318 | 12.22110 | 8813 ft | 267 kts | 273° |
| 2026-05-06 22:17 | 48.15508 | 12.19340 | 8494 ft | 264 kts | 273° |
| 2026-05-06 22:17 | 48.15948 | 12.16703 | 8106 ft | 268 kts | 297° |
| 2026-05-06 22:18 | 48.17278 | 12.14707 | 7805 ft | 273 kts | 325° |
| 2026-05-06 22:18 | 48.19064 | 12.13779 | 7485 ft | 278 kts | 349° |
| 2026-05-06 22:18 | 48.21002 | 12.13847 | 7196 ft | 279 kts | 359° |
| 2026-05-06 22:18 | 48.22944 | 12.14087 | 6868 ft | 277 kts | 359° |
| 2026-05-06 22:19 | 48.24843 | 12.14307 | 6573 ft | 274 kts | 358° |
| 2026-05-06 22:19 | 48.26747 | 12.14501 | 6268 ft | 271 kts | 357° |
| 2026-05-06 22:19 | 48.28613 | 12.14675 | 5966 ft | 268 kts | 357° |
| 2026-05-06 22:19 | 48.30458 | 12.14838 | 5636 ft | 267 kts | 357° |
| 2026-05-06 22:20 | 48.32282 | 12.14728 | 5248 ft | 257 kts | 338° |
| 2026-05-06 22:20 | 48.33757 | 12.13357 | 4953 ft | 243 kts | 310° |
| 2026-05-06 22:20 | 48.34815 | 12.11472 | 4904 ft | 230 kts | 307° |
| 2026-05-06 22:20 | 48.35809 | 12.09664 | 4892 ft | 215 kts | 299° |
| 2026-05-06 22:21 | 48.36292 | 12.07670 | 4884 ft | 197 kts | 276° |
| 2026-05-06 22:21 | 48.36333 | 12.05697 | 4844 ft | 182 kts | 269° |
| 2026-05-06 22:21 | 48.36266 | 12.03841 | 4623 ft | 171 kts | 267° |
| 2026-05-06 22:21 | 48.36164 | 12.02113 | 4382 ft | 162 kts | 265° |
| 2026-05-06 22:22 | 48.36049 | 12.00487 | 4160 ft | 151 kts | 265° |
| 2026-05-06 22:22 | 48.35933 | 11.98979 | 3945 ft | 142 kts | 265° |
| 2026-05-06 22:22 | 48.35816 | 11.97498 | 3769 ft | 141 kts | 265° |
| 2026-05-06 22:22 | 48.35701 | 11.96047 | 3599 ft | 140 kts | 265° |
| 2026-05-06 22:23 | 48.35584 | 11.94581 | 3423 ft | 139 kts | 265° |
| 2026-05-06 22:23 | 48.35470 | 11.93146 | 3250 ft | 139 kts | 264° |
| 2026-05-06 22:23 | 48.35356 | 11.91709 | 3058 ft | 137 kts | 264° |
| 2026-05-06 22:23 | 48.35243 | 11.90276 | 2864 ft | 138 kts | 264° |
| 2026-05-06 22:24 | 48.35130 | 11.88846 | 2646 ft | 140 kts | 264° |
| 2026-05-06 22:24 | 48.35016 | 11.87354 | 2460 ft | 145 kts | 263° |
| 2026-05-06 22:24 | 48.34892 | 11.85830 | 2205 ft | 145 kts | 263° |
| 2026-05-06 22:24 | 48.34773 | 11.84328 | 2023 ft | 145 kts | 262° |
| 2026-05-06 22:25 | 48.34662 | 11.82831 | 1851 ft | 144 kts | 261° |
| 2026-05-06 22:25 | 48.34542 | 11.81323 | 1644 ft | 143 kts | 262° |
| 2026-05-06 22:25 | 48.34434 | 11.79867 | 1483 ft | 135 kts | 263° |
| 2026-05-06 22:25 | 48.34345 | 11.78717 | 1488 ft | 85 kts | 263° |
| 2026-05-06 22:26 | 48.34298 | 11.78091 | 1485 ft | 43 kts | 263° |
| 2026-05-06 22:26 | 48.34265 | 11.77661 | 1482 ft | 39 kts | 263° |
| 2026-05-06 22:26 | 48.34258 | 11.77334 | 1491 ft | 27 kts | 278° |
| 2026-05-06 22:26 | 48.34310 | 11.77081 | 1488 ft | 22 kts | 293° |
| 2026-05-06 22:27 | 48.34369 | 11.76875 | 1489 ft | 19 kts | 293° |
| 2026-05-06 22:27 | 48.34412 | 11.76765 | 1482 ft | 11 kts | 329° |
| 2026-05-06 22:27 | 48.34472 | 11.76831 | 1488 ft | 15 kts | 79° |
| 2026-05-06 22:27 | 48.34487 | 11.77005 | 1485 ft | 19 kts | 83° |
| 2026-05-06 22:28 | 48.34503 | 11.77216 | 1482 ft | 22 kts | 83° |
| 2026-05-06 22:28 | 48.34520 | 11.77452 | 1489 ft | 23 kts | 83° |
| 2026-05-06 22:28 | 48.34541 | 11.77710 | 1487 ft | 26 kts | 83° |
| 2026-05-06 22:28 | 48.34562 | 11.77995 | 1484 ft | 28 kts | 83° |
| 2026-05-06 22:29 | 48.34585 | 11.78298 | 1484 ft | 30 kts | 83° |
| 2026-05-06 22:29 | 48.34611 | 11.78622 | 1480 ft | 32 kts | 83° |
| 2026-05-06 22:29 | 48.34636 | 11.78955 | 1487 ft | 31 kts | 83° |
| 2026-05-06 22:29 | 48.34657 | 11.79221 | 1490 ft | 20 kts | 83° |
| 2026-05-06 22:30 | 48.34673 | 11.79430 | 1494 ft | 19 kts | 84° |
| 2026-05-06 22:30 | 48.34684 | 11.79577 | 1481 ft | 12 kts | 83° |
| 2026-05-06 22:30 | 48.34697 | 11.79681 | 1480 ft | 9 kts | 58° |
| 2026-05-06 22:30 | 48.34756 | 11.79710 | 1489 ft | 10 kts | 355° |
| 2026-05-06 22:31 | 48.34825 | 11.79699 | 1484 ft | 10 kts | 353° |
| 2026-05-06 22:31 | 48.34897 | 11.79686 | 1490 ft | 11 kts | 353° |
| 2026-05-06 22:31 | 48.34986 | 11.79671 | 1487 ft | 14 kts | 353° |
| 2026-05-06 22:31 | 48.35089 | 11.79652 | 1486 ft | 15 kts | 353° |
| 2026-05-06 22:32 | 48.35198 | 11.79634 | 1484 ft | 16 kts | 353° |
| 2026-05-06 22:32 | 48.35313 | 11.79614 | 1481 ft | 17 kts | 354° |
| 2026-05-06 22:32 | 48.35431 | 11.79595 | 1480 ft | 15 kts | 354° |
| 2026-05-06 22:32 | 48.35530 | 11.79577 | 1481 ft | 14 kts | 353° |
| 2026-05-06 22:33 | 48.35604 | 11.79564 | 1488 ft | 8 kts | 353° |
| 2026-05-06 22:33 | 48.35657 | 11.79555 | 1486 ft | 8 kts | 354° |
| 2026-05-06 22:33 | 48.35686 | 11.79597 | 1479 ft | 7 kts | 82° |
| 2026-05-06 22:33 | 48.35691 | 11.79672 | 1480 ft | 7 kts | 83° |
| 2026-05-06 22:34 | 48.35693 | 11.79692 | 1489 ft | 0 kts | 83° |